sensor_id;sensor_type;location;lat;lon;timestamp;P1;durP1;ratioP1;P2;durP2;ratioP2
39020;SDS011;25188;51.958;5.842;2022-07-23T00:01:22;2.83;;;0.85;;
39020;SDS011;25188;51.958;5.842;2022-07-23T00:03:48;2.72;;;1.20;;
39020;SDS011;25188;51.958;5.842;2022-07-23T00:06:14;2.83;;;0.93;;
39020;SDS011;25188;51.958;5.842;2022-07-23T00:08:40;4.43;;;1.00;;
39020;SDS011;25188;51.958;5.842;2022-07-23T00:11:06;3.05;;;1.00;;
39020;SDS011;25188;51.958;5.842;2022-07-23T00:13:32;3.58;;;1.15;;
39020;SDS011;25188;51.958;5.842;2022-07-23T00:15:57;3.22;;;1.20;;
39020;SDS011;25188;51.958;5.842;2022-07-23T00:18:23;4.35;;;1.00;;
39020;SDS011;25188;51.958;5.842;2022-07-23T00:20:49;6.93;;;1.15;;
39020;SDS011;25188;51.958;5.842;2022-07-23T00:23:14;5.25;;;1.00;;
39020;SDS011;25188;51.958;5.842;2022-07-23T00:25:40;3.08;;;1.05;;
39020;SDS011;25188;51.958;5.842;2022-07-23T00:28:06;3.60;;;1.33;;
39020;SDS011;25188;51.958;5.842;2022-07-23T00:30:32;4.07;;;1.25;;
39020;SDS011;25188;51.958;5.842;2022-07-23T00:32:59;5.05;;;1.17;;
39020;SDS011;25188;51.958;5.842;2022-07-23T00:35:29;6.78;;;1.40;;
39020;SDS011;25188;51.958;5.842;2022-07-23T00:37:56;2.92;;;1.30;;
39020;SDS011;25188;51.958;5.842;2022-07-23T00:40:22;2.72;;;1.15;;
39020;SDS011;25188;51.958;5.842;2022-07-23T00:42:48;3.50;;;1.58;;
39020;SDS011;25188;51.958;5.842;2022-07-23T00:45:14;4.53;;;1.40;;
39020;SDS011;25188;51.958;5.842;2022-07-23T00:47:40;5.60;;;1.70;;
39020;SDS011;25188;51.958;5.842;2022-07-23T00:50:06;3.13;;;1.17;;
39020;SDS011;25188;51.958;5.842;2022-07-23T00:52:33;3.42;;;1.55;;
39020;SDS011;25188;51.958;5.842;2022-07-23T00:55:00;4.18;;;1.50;;
39020;SDS011;25188;51.958;5.842;2022-07-23T00:57:27;2.60;;;1.27;;
39020;SDS011;25188;51.958;5.842;2022-07-23T00:59:53;4.85;;;1.52;;
39020;SDS011;25188;51.958;5.842;2022-07-23T01:02:19;3.90;;;1.42;;
39020;SDS011;25188;51.958;5.842;2022-07-23T01:04:44;4.38;;;1.20;;
39020;SDS011;25188;51.958;5.842;2022-07-23T01:07:10;4.43;;;1.38;;
39020;SDS011;25188;51.958;5.842;2022-07-23T01:09:36;4.97;;;1.77;;
39020;SDS011;25188;51.958;5.842;2022-07-23T01:12:03;5.90;;;1.27;;
39020;SDS011;25188;51.958;5.842;2022-07-23T01:14:29;2.70;;;1.30;;
39020;SDS011;25188;51.958;5.842;2022-07-23T01:16:54;8.45;;;1.63;;
39020;SDS011;25188;51.958;5.842;2022-07-23T01:19:20;3.55;;;1.55;;
39020;SDS011;25188;51.958;5.842;2022-07-23T01:21:47;6.32;;;1.70;;
39020;SDS011;25188;51.958;5.842;2022-07-23T01:24:15;3.10;;;1.50;;
39020;SDS011;25188;51.958;5.842;2022-07-23T01:26:42;6.68;;;2.00;;
39020;SDS011;25188;51.958;5.842;2022-07-23T01:29:09;3.30;;;1.70;;
39020;SDS011;25188;51.958;5.842;2022-07-23T01:31:35;5.45;;;1.65;;
39020;SDS011;25188;51.958;5.842;2022-07-23T01:34:01;4.22;;;1.88;;
39020;SDS011;25188;51.958;5.842;2022-07-23T01:36:27;5.47;;;2.05;;
39020;SDS011;25188;51.958;5.842;2022-07-23T01:38:53;6.20;;;2.03;;
39020;SDS011;25188;51.958;5.842;2022-07-23T01:41:19;4.35;;;1.70;;
39020;SDS011;25188;51.958;5.842;2022-07-23T01:43:45;5.05;;;2.05;;
39020;SDS011;25188;51.958;5.842;2022-07-23T01:46:10;3.78;;;1.65;;
39020;SDS011;25188;51.958;5.842;2022-07-23T01:48:37;3.50;;;1.80;;
39020;SDS011;25188;51.958;5.842;2022-07-23T01:51:02;3.85;;;1.75;;
39020;SDS011;25188;51.958;5.842;2022-07-23T01:53:28;3.03;;;1.65;;
39020;SDS011;25188;51.958;5.842;2022-07-23T01:55:56;3.67;;;1.40;;
39020;SDS011;25188;51.958;5.842;2022-07-23T01:58:22;4.60;;;1.67;;
39020;SDS011;25188;51.958;5.842;2022-07-23T02:00:48;4.13;;;1.67;;
39020;SDS011;25188;51.958;5.842;2022-07-23T02:03:13;7.57;;;1.92;;
39020;SDS011;25188;51.958;5.842;2022-07-23T02:05:39;4.10;;;1.77;;
39020;SDS011;25188;51.958;5.842;2022-07-23T02:08:05;4.78;;;1.77;;
39020;SDS011;25188;51.958;5.842;2022-07-23T02:10:30;4.57;;;1.60;;
39020;SDS011;25188;51.958;5.842;2022-07-23T02:12:56;4.68;;;1.73;;
39020;SDS011;25188;51.958;5.842;2022-07-23T02:15:22;5.90;;;2.38;;
39020;SDS011;25188;51.958;5.842;2022-07-23T02:17:47;5.10;;;1.80;;
39020;SDS011;25188;51.958;5.842;2022-07-23T02:20:13;4.53;;;1.67;;
39020;SDS011;25188;51.958;5.842;2022-07-23T02:22:39;4.32;;;1.50;;
39020;SDS011;25188;51.958;5.842;2022-07-23T02:25:05;3.00;;;1.52;;
39020;SDS011;25188;51.958;5.842;2022-07-23T02:27:32;5.05;;;1.48;;
39020;SDS011;25188;51.958;5.842;2022-07-23T02:29:58;5.10;;;1.70;;
39020;SDS011;25188;51.958;5.842;2022-07-23T02:32:24;6.50;;;2.30;;
39020;SDS011;25188;51.958;5.842;2022-07-23T02:34:50;6.28;;;1.92;;
39020;SDS011;25188;51.958;5.842;2022-07-23T02:37:16;4.88;;;1.88;;
39020;SDS011;25188;51.958;5.842;2022-07-23T02:39:42;5.28;;;1.88;;
39020;SDS011;25188;51.958;5.842;2022-07-23T02:42:08;3.38;;;1.40;;
39020;SDS011;25188;51.958;5.842;2022-07-23T02:44:33;3.72;;;1.88;;
39020;SDS011;25188;51.958;5.842;2022-07-23T02:46:59;4.32;;;1.65;;
39020;SDS011;25188;51.958;5.842;2022-07-23T02:49:25;9.10;;;2.22;;
39020;SDS011;25188;51.958;5.842;2022-07-23T02:51:50;3.03;;;1.60;;
39020;SDS011;25188;51.958;5.842;2022-07-23T02:54:16;2.83;;;1.20;;
39020;SDS011;25188;51.958;5.842;2022-07-23T02:56:42;5.47;;;1.88;;
39020;SDS011;25188;51.958;5.842;2022-07-23T02:59:07;4.45;;;1.80;;
39020;SDS011;25188;51.958;5.842;2022-07-23T03:01:33;3.30;;;1.40;;
39020;SDS011;25188;51.958;5.842;2022-07-23T03:03:59;4.68;;;1.70;;
39020;SDS011;25188;51.958;5.842;2022-07-23T03:06:25;5.00;;;2.15;;
39020;SDS011;25188;51.958;5.842;2022-07-23T03:08:51;3.10;;;1.48;;
39020;SDS011;25188;51.958;5.842;2022-07-23T03:11:16;4.75;;;1.50;;
39020;SDS011;25188;51.958;5.842;2022-07-23T03:13:43;3.47;;;1.50;;
39020;SDS011;25188;51.958;5.842;2022-07-23T03:16:08;4.60;;;1.60;;
39020;SDS011;25188;51.958;5.842;2022-07-23T03:18:34;2.08;;;1.20;;
39020;SDS011;25188;51.958;5.842;2022-07-23T03:21:00;4.72;;;1.60;;
39020;SDS011;25188;51.958;5.842;2022-07-23T03:23:26;3.65;;;1.27;;
39020;SDS011;25188;51.958;5.842;2022-07-23T03:25:51;3.15;;;1.45;;
39020;SDS011;25188;51.958;5.842;2022-07-23T03:28:17;3.33;;;1.60;;
39020;SDS011;25188;51.958;5.842;2022-07-23T03:30:44;5.15;;;1.63;;
39020;SDS011;25188;51.958;5.842;2022-07-23T03:33:13;5.07;;;1.75;;
39020;SDS011;25188;51.958;5.842;2022-07-23T03:35:41;5.47;;;1.52;;
39020;SDS011;25188;51.958;5.842;2022-07-23T03:38:07;2.92;;;1.42;;
39020;SDS011;25188;51.958;5.842;2022-07-23T03:40:33;5.70;;;1.52;;
39020;SDS011;25188;51.958;5.842;2022-07-23T03:42:58;6.22;;;2.08;;
39020;SDS011;25188;51.958;5.842;2022-07-23T03:45:24;2.72;;;1.42;;
39020;SDS011;25188;51.958;5.842;2022-07-23T03:47:50;7.18;;;1.40;;
39020;SDS011;25188;51.958;5.842;2022-07-23T03:50:15;4.28;;;1.60;;
39020;SDS011;25188;51.958;5.842;2022-07-23T03:52:41;3.55;;;1.15;;
39020;SDS011;25188;51.958;5.842;2022-07-23T03:55:07;2.20;;;1.20;;
39020;SDS011;25188;51.958;5.842;2022-07-23T03:57:32;6.18;;;1.80;;
39020;SDS011;25188;51.958;5.842;2022-07-23T03:59:58;6.40;;;1.75;;
39020;SDS011;25188;51.958;5.842;2022-07-23T04:02:24;4.07;;;1.55;;
39020;SDS011;25188;51.958;5.842;2022-07-23T04:04:50;3.25;;;1.40;;
39020;SDS011;25188;51.958;5.842;2022-07-23T04:07:16;4.53;;;1.40;;
39020;SDS011;25188;51.958;5.842;2022-07-23T04:09:42;5.07;;;1.60;;
39020;SDS011;25188;51.958;5.842;2022-07-23T04:12:08;5.22;;;1.05;;
39020;SDS011;25188;51.958;5.842;2022-07-23T04:14:34;4.10;;;1.52;;
39020;SDS011;25188;51.958;5.842;2022-07-23T04:17:00;5.13;;;1.02;;
39020;SDS011;25188;51.958;5.842;2022-07-23T04:19:26;3.05;;;1.20;;
39020;SDS011;25188;51.958;5.842;2022-07-23T04:21:52;3.67;;;1.35;;
39020;SDS011;25188;51.958;5.842;2022-07-23T04:24:18;4.78;;;1.02;;
39020;SDS011;25188;51.958;5.842;2022-07-23T04:26:44;2.92;;;1.45;;
39020;SDS011;25188;51.958;5.842;2022-07-23T04:29:10;2.30;;;1.23;;
39020;SDS011;25188;51.958;5.842;2022-07-23T04:31:36;4.15;;;1.33;;
39020;SDS011;25188;51.958;5.842;2022-07-23T04:34:02;3.60;;;1.23;;
39020;SDS011;25188;51.958;5.842;2022-07-23T04:36:27;4.50;;;1.38;;
39020;SDS011;25188;51.958;5.842;2022-07-23T04:38:53;4.63;;;1.40;;
39020;SDS011;25188;51.958;5.842;2022-07-23T04:41:19;5.13;;;1.00;;
39020;SDS011;25188;51.958;5.842;2022-07-23T04:43:45;2.72;;;1.27;;
39020;SDS011;25188;51.958;5.842;2022-07-23T04:46:11;2.88;;;1.00;;
39020;SDS011;25188;51.958;5.842;2022-07-23T04:48:37;6.32;;;1.45;;
39020;SDS011;25188;51.958;5.842;2022-07-23T04:51:02;4.35;;;1.45;;
39020;SDS011;25188;51.958;5.842;2022-07-23T04:53:28;6.05;;;1.48;;
39020;SDS011;25188;51.958;5.842;2022-07-23T04:55:54;4.65;;;1.50;;
39020;SDS011;25188;51.958;5.842;2022-07-23T04:58:20;4.88;;;1.42;;
39020;SDS011;25188;51.958;5.842;2022-07-23T05:00:46;5.70;;;1.10;;
39020;SDS011;25188;51.958;5.842;2022-07-23T05:03:11;7.43;;;1.60;;
39020;SDS011;25188;51.958;5.842;2022-07-23T05:05:37;2.80;;;1.05;;
39020;SDS011;25188;51.958;5.842;2022-07-23T05:08:03;4.60;;;1.48;;
39020;SDS011;25188;51.958;5.842;2022-07-23T05:10:29;2.10;;;1.08;;
39020;SDS011;25188;51.958;5.842;2022-07-23T05:12:55;2.78;;;1.30;;
39020;SDS011;25188;51.958;5.842;2022-07-23T05:15:20;5.70;;;1.40;;
39020;SDS011;25188;51.958;5.842;2022-07-23T05:17:46;6.93;;;1.00;;
39020;SDS011;25188;51.958;5.842;2022-07-23T05:20:12;2.83;;;1.30;;
39020;SDS011;25188;51.958;5.842;2022-07-23T05:22:39;5.57;;;1.00;;
39020;SDS011;25188;51.958;5.842;2022-07-23T05:25:05;6.55;;;1.00;;
39020;SDS011;25188;51.958;5.842;2022-07-23T05:27:31;3.15;;;1.00;;
39020;SDS011;25188;51.958;5.842;2022-07-23T05:29:56;6.40;;;1.40;;
39020;SDS011;25188;51.958;5.842;2022-07-23T05:32:22;3.22;;;1.25;;
39020;SDS011;25188;51.958;5.842;2022-07-23T05:34:48;5.13;;;1.15;;
39020;SDS011;25188;51.958;5.842;2022-07-23T05:37:13;6.88;;;1.00;;
39020;SDS011;25188;51.958;5.842;2022-07-23T05:39:39;6.85;;;1.33;;
39020;SDS011;25188;51.958;5.842;2022-07-23T05:42:05;4.88;;;1.13;;
39020;SDS011;25188;51.958;5.842;2022-07-23T05:44:30;3.97;;;1.33;;
39020;SDS011;25188;51.958;5.842;2022-07-23T05:46:56;3.72;;;1.15;;
39020;SDS011;25188;51.958;5.842;2022-07-23T05:49:21;3.25;;;0.80;;
39020;SDS011;25188;51.958;5.842;2022-07-23T05:51:47;3.67;;;1.00;;
39020;SDS011;25188;51.958;5.842;2022-07-23T05:54:13;3.35;;;1.20;;
39020;SDS011;25188;51.958;5.842;2022-07-23T05:56:38;4.03;;;1.13;;
39020;SDS011;25188;51.958;5.842;2022-07-23T05:59:04;2.95;;;1.00;;
39020;SDS011;25188;51.958;5.842;2022-07-23T06:01:31;4.38;;;1.02;;
39020;SDS011;25188;51.958;5.842;2022-07-23T06:03:56;2.65;;;0.77;;
39020;SDS011;25188;51.958;5.842;2022-07-23T06:06:22;3.72;;;0.63;;
39020;SDS011;25188;51.958;5.842;2022-07-23T06:08:48;2.45;;;0.70;;
39020;SDS011;25188;51.958;5.842;2022-07-23T06:11:13;6.18;;;0.90;;
39020;SDS011;25188;51.958;5.842;2022-07-23T06:13:39;4.95;;;0.80;;
39020;SDS011;25188;51.958;5.842;2022-07-23T06:16:04;2.00;;;0.80;;
39020;SDS011;25188;51.958;5.842;2022-07-23T06:18:30;3.13;;;0.90;;
39020;SDS011;25188;51.958;5.842;2022-07-23T06:20:56;2.88;;;0.55;;
39020;SDS011;25188;51.958;5.842;2022-07-23T06:23:21;2.15;;;0.80;;
39020;SDS011;25188;51.958;5.842;2022-07-23T06:25:47;3.90;;;1.05;;
39020;SDS011;25188;51.958;5.842;2022-07-23T06:28:13;1.30;;;0.60;;
39020;SDS011;25188;51.958;5.842;2022-07-23T06:30:38;3.38;;;0.85;;
39020;SDS011;25188;51.958;5.842;2022-07-23T06:33:04;3.63;;;1.10;;
39020;SDS011;25188;51.958;5.842;2022-07-23T06:35:29;2.58;;;0.80;;
39020;SDS011;25188;51.958;5.842;2022-07-23T06:37:55;7.10;;;1.00;;
39020;SDS011;25188;51.958;5.842;2022-07-23T06:40:21;7.85;;;1.40;;
39020;SDS011;25188;51.958;5.842;2022-07-23T06:42:46;4.75;;;1.10;;
39020;SDS011;25188;51.958;5.842;2022-07-23T06:45:12;5.00;;;0.95;;
39020;SDS011;25188;51.958;5.842;2022-07-23T06:47:37;3.05;;;1.10;;
39020;SDS011;25188;51.958;5.842;2022-07-23T06:50:04;5.00;;;1.42;;
39020;SDS011;25188;51.958;5.842;2022-07-23T06:52:31;2.22;;;1.10;;
39020;SDS011;25188;51.958;5.842;2022-07-23T06:54:56;5.95;;;1.38;;
39020;SDS011;25188;51.958;5.842;2022-07-23T06:57:22;4.03;;;0.90;;
39020;SDS011;25188;51.958;5.842;2022-07-23T06:59:50;2.53;;;1.20;;
39020;SDS011;25188;51.958;5.842;2022-07-23T07:02:16;5.20;;;1.17;;
39020;SDS011;25188;51.958;5.842;2022-07-23T07:04:42;2.63;;;0.98;;
39020;SDS011;25188;51.958;5.842;2022-07-23T07:07:07;2.38;;;0.90;;
39020;SDS011;25188;51.958;5.842;2022-07-23T07:09:33;3.75;;;1.40;;
39020;SDS011;25188;51.958;5.842;2022-07-23T07:11:59;3.65;;;1.08;;
39020;SDS011;25188;51.958;5.842;2022-07-23T07:14:24;5.65;;;1.38;;
39020;SDS011;25188;51.958;5.842;2022-07-23T07:16:50;4.50;;;1.00;;
39020;SDS011;25188;51.958;5.842;2022-07-23T07:19:16;5.15;;;1.00;;
39020;SDS011;25188;51.958;5.842;2022-07-23T07:21:41;2.55;;;0.85;;
39020;SDS011;25188;51.958;5.842;2022-07-23T07:24:07;2.10;;;0.90;;
39020;SDS011;25188;51.958;5.842;2022-07-23T07:26:33;5.03;;;1.00;;
39020;SDS011;25188;51.958;5.842;2022-07-23T07:28:58;1.58;;;0.70;;
39020;SDS011;25188;51.958;5.842;2022-07-23T07:31:24;3.45;;;0.88;;
39020;SDS011;25188;51.958;5.842;2022-07-23T07:33:49;5.38;;;0.93;;
39020;SDS011;25188;51.958;5.842;2022-07-23T07:36:15;3.63;;;0.80;;
39020;SDS011;25188;51.958;5.842;2022-07-23T07:38:41;2.70;;;0.85;;
39020;SDS011;25188;51.958;5.842;2022-07-23T07:41:06;3.30;;;0.90;;
39020;SDS011;25188;51.958;5.842;2022-07-23T07:43:35;3.90;;;0.90;;
39020;SDS011;25188;51.958;5.842;2022-07-23T07:46:01;5.35;;;1.02;;
39020;SDS011;25188;51.958;5.842;2022-07-23T07:48:27;2.53;;;0.60;;
39020;SDS011;25188;51.958;5.842;2022-07-23T07:50:53;2.47;;;0.80;;
39020;SDS011;25188;51.958;5.842;2022-07-23T07:53:18;3.22;;;0.88;;
39020;SDS011;25188;51.958;5.842;2022-07-23T07:55:44;1.30;;;0.75;;
39020;SDS011;25188;51.958;5.842;2022-07-23T07:58:10;3.42;;;0.80;;
39020;SDS011;25188;51.958;5.842;2022-07-23T08:00:36;4.13;;;0.80;;
39020;SDS011;25188;51.958;5.842;2022-07-23T08:03:02;2.92;;;0.95;;
39020;SDS011;25188;51.958;5.842;2022-07-23T08:05:28;3.10;;;0.77;;
39020;SDS011;25188;51.958;5.842;2022-07-23T08:07:55;1.73;;;0.85;;
39020;SDS011;25188;51.958;5.842;2022-07-23T08:10:22;2.90;;;0.80;;
39020;SDS011;25188;51.958;5.842;2022-07-23T08:12:49;5.10;;;1.17;;
39020;SDS011;25188;51.958;5.842;2022-07-23T08:15:20;4.95;;;1.25;;
39020;SDS011;25188;51.958;5.842;2022-07-23T08:17:47;3.08;;;0.80;;
39020;SDS011;25188;51.958;5.842;2022-07-23T08:20:13;1.95;;;0.82;;
39020;SDS011;25188;51.958;5.842;2022-07-23T08:22:48;3.47;;;0.80;;
39020;SDS011;25188;51.958;5.842;2022-07-23T08:25:30;1.40;;;0.70;;
39020;SDS011;25188;51.958;5.842;2022-07-23T08:27:59;5.63;;;1.10;;
39020;SDS011;25188;51.958;5.842;2022-07-23T08:30:25;3.05;;;0.98;;
39020;SDS011;25188;51.958;5.842;2022-07-23T08:33:08;4.47;;;1.08;;
39020;SDS011;25188;51.958;5.842;2022-07-23T08:35:48;5.50;;;1.20;;
39020;SDS011;25188;51.958;5.842;2022-07-23T08:38:16;1.92;;;0.80;;
39020;SDS011;25188;51.958;5.842;2022-07-23T08:40:44;3.40;;;0.95;;
39020;SDS011;25188;51.958;5.842;2022-07-23T08:43:23;3.47;;;0.80;;
39020;SDS011;25188;51.958;5.842;2022-07-23T08:45:51;4.03;;;1.20;;
39020;SDS011;25188;51.958;5.842;2022-07-23T08:48:22;2.58;;;0.70;;
39020;SDS011;25188;51.958;5.842;2022-07-23T08:50:50;4.47;;;0.98;;
39020;SDS011;25188;51.958;5.842;2022-07-23T08:53:19;3.33;;;0.60;;
39020;SDS011;25188;51.958;5.842;2022-07-23T08:55:46;2.22;;;1.05;;
39020;SDS011;25188;51.958;5.842;2022-07-23T08:58:12;4.03;;;0.90;;
39020;SDS011;25188;51.958;5.842;2022-07-23T09:00:39;2.67;;;0.80;;
39020;SDS011;25188;51.958;5.842;2022-07-23T09:03:04;3.22;;;0.95;;
39020;SDS011;25188;51.958;5.842;2022-07-23T09:05:30;3.60;;;1.08;;
39020;SDS011;25188;51.958;5.842;2022-07-23T09:08:15;2.90;;;1.20;;
39020;SDS011;25188;51.958;5.842;2022-07-23T09:13:30;3.15;;;1.05;;
39020;SDS011;25188;51.958;5.842;2022-07-23T09:15:59;2.13;;;0.68;;
39020;SDS011;25188;51.958;5.842;2022-07-23T09:18:33;4.65;;;0.70;;
39020;SDS011;25188;51.958;5.842;2022-07-23T09:21:13;1.58;;;0.70;;
39020;SDS011;25188;51.958;5.842;2022-07-23T09:23:40;2.60;;;0.57;;
39020;SDS011;25188;51.958;5.842;2022-07-23T09:26:17;2.08;;;0.63;;
39020;SDS011;25188;51.958;5.842;2022-07-23T09:37:11;1.88;;;0.60;;
39020;SDS011;25188;51.958;5.842;2022-07-23T09:39:38;2.28;;;0.60;;
39020;SDS011;25188;51.958;5.842;2022-07-23T09:42:15;3.75;;;0.70;;
39020;SDS011;25188;51.958;5.842;2022-07-23T09:44:49;2.38;;;0.80;;
39020;SDS011;25188;51.958;5.842;2022-07-23T09:47:20;3.30;;;0.80;;
39020;SDS011;25188;51.958;5.842;2022-07-23T09:52:30;2.53;;;0.90;;
39020;SDS011;25188;51.958;5.842;2022-07-23T09:55:17;1.50;;;0.50;;
39020;SDS011;25188;51.958;5.842;2022-07-23T09:57:44;6.05;;;0.93;;
39020;SDS011;25188;51.958;5.842;2022-07-23T10:00:11;1.58;;;0.50;;
39020;SDS011;25188;51.958;5.842;2022-07-23T10:02:38;3.95;;;0.90;;
39020;SDS011;25188;51.958;5.842;2022-07-23T10:05:05;2.53;;;0.68;;
39020;SDS011;25188;51.958;5.842;2022-07-23T10:07:32;1.20;;;0.50;;
39020;SDS011;25188;51.958;5.842;2022-07-23T10:10:02;1.25;;;0.50;;
39020;SDS011;25188;51.958;5.842;2022-07-23T10:12:28;1.45;;;0.50;;
39020;SDS011;25188;51.958;5.842;2022-07-23T10:14:55;2.70;;;0.50;;
39020;SDS011;25188;51.958;5.842;2022-07-23T10:17:22;1.88;;;0.60;;
39020;SDS011;25188;51.958;5.842;2022-07-23T10:19:49;2.83;;;0.80;;
39020;SDS011;25188;51.958;5.842;2022-07-23T10:22:18;2.25;;;0.52;;
39020;SDS011;25188;51.958;5.842;2022-07-23T10:30:12;1.25;;;0.60;;
39020;SDS011;25188;51.958;5.842;2022-07-23T10:35:37;1.35;;;0.60;;
39020;SDS011;25188;51.958;5.842;2022-07-23T10:38:12;2.03;;;0.60;;
39020;SDS011;25188;51.958;5.842;2022-07-23T10:43:25;2.50;;;0.70;;
39020;SDS011;25188;51.958;5.842;2022-07-23T10:45:51;2.47;;;0.63;;
39020;SDS011;25188;51.958;5.842;2022-07-23T10:48:19;2.22;;;0.80;;
39020;SDS011;25188;51.958;5.842;2022-07-23T10:59:12;3.00;;;0.60;;
39020;SDS011;25188;51.958;5.842;2022-07-23T11:01:38;1.30;;;0.60;;
39020;SDS011;25188;51.958;5.842;2022-07-23T11:04:04;3.58;;;0.70;;
39020;SDS011;25188;51.958;5.842;2022-07-23T11:09:26;2.17;;;0.60;;
39020;SDS011;25188;51.958;5.842;2022-07-23T11:17:31;2.78;;;0.50;;
39020;SDS011;25188;51.958;5.842;2022-07-23T11:22:38;1.40;;;0.70;;
39020;SDS011;25188;51.958;5.842;2022-07-23T11:27:38;3.58;;;0.70;;
39020;SDS011;25188;51.958;5.842;2022-07-23T11:30:04;1.85;;;0.80;;
39020;SDS011;25188;51.958;5.842;2022-07-23T11:32:32;2.08;;;0.60;;
39020;SDS011;25188;51.958;5.842;2022-07-23T11:35:02;2.75;;;0.50;;
39020;SDS011;25188;51.958;5.842;2022-07-23T11:40:14;2.92;;;0.55;;
39020;SDS011;25188;51.958;5.842;2022-07-23T11:42:51;2.55;;;0.63;;
39020;SDS011;25188;51.958;5.842;2022-07-23T11:45:38;1.67;;;0.55;;
39020;SDS011;25188;51.958;5.842;2022-07-23T11:48:06;2.78;;;0.85;;
39020;SDS011;25188;51.958;5.842;2022-07-23T11:50:33;2.50;;;0.50;;
39020;SDS011;25188;51.958;5.842;2022-07-23T11:53:00;1.85;;;0.65;;
39020;SDS011;25188;51.958;5.842;2022-07-23T11:55:26;1.48;;;0.60;;
39020;SDS011;25188;51.958;5.842;2022-07-23T11:57:53;3.63;;;0.60;;
39020;SDS011;25188;51.958;5.842;2022-07-23T12:00:21;1.60;;;0.40;;
39020;SDS011;25188;51.958;5.842;2022-07-23T12:02:49;1.33;;;0.52;;
39020;SDS011;25188;51.958;5.842;2022-07-23T12:05:17;2.60;;;0.70;;
39020;SDS011;25188;51.958;5.842;2022-07-23T12:07:49;1.92;;;0.70;;
39020;SDS011;25188;51.958;5.842;2022-07-23T12:10:20;1.75;;;0.57;;
39020;SDS011;25188;51.958;5.842;2022-07-23T12:12:56;1.65;;;0.70;;
39020;SDS011;25188;51.958;5.842;2022-07-23T12:15:28;0.98;;;0.55;;
39020;SDS011;25188;51.958;5.842;2022-07-23T12:17:59;1.65;;;0.70;;
39020;SDS011;25188;51.958;5.842;2022-07-23T12:20:36;1.63;;;0.65;;
39020;SDS011;25188;51.958;5.842;2022-07-23T12:23:08;1.85;;;0.70;;
39020;SDS011;25188;51.958;5.842;2022-07-23T12:25:35;1.55;;;0.80;;
39020;SDS011;25188;51.958;5.842;2022-07-23T12:33:38;1.48;;;0.57;;
39020;SDS011;25188;51.958;5.842;2022-07-23T12:36:06;1.65;;;0.70;;
39020;SDS011;25188;51.958;5.842;2022-07-23T12:38:40;3.47;;;0.60;;
39020;SDS011;25188;51.958;5.842;2022-07-23T12:41:12;2.75;;;0.70;;
39020;SDS011;25188;51.958;5.842;2022-07-23T12:43:39;1.63;;;0.70;;
39020;SDS011;25188;51.958;5.842;2022-07-23T12:56:12;2.13;;;0.50;;
39020;SDS011;25188;51.958;5.842;2022-07-23T12:59:04;1.70;;;0.50;;
39020;SDS011;25188;51.958;5.842;2022-07-23T13:01:35;2.03;;;0.80;;
39020;SDS011;25188;51.958;5.842;2022-07-23T13:06:47;1.08;;;0.43;;
39020;SDS011;25188;51.958;5.842;2022-07-23T13:09:22;2.15;;;0.60;;
39020;SDS011;25188;51.958;5.842;2022-07-23T13:11:52;0.88;;;0.47;;
39020;SDS011;25188;51.958;5.842;2022-07-23T13:14:19;2.47;;;0.60;;
39020;SDS011;25188;51.958;5.842;2022-07-23T13:16:46;1.88;;;0.80;;
39020;SDS011;25188;51.958;5.842;2022-07-23T13:19:13;1.20;;;0.70;;
39020;SDS011;25188;51.958;5.842;2022-07-23T13:21:39;1.92;;;0.60;;
39020;SDS011;25188;51.958;5.842;2022-07-23T13:24:05;1.83;;;0.60;;
39020;SDS011;25188;51.958;5.842;2022-07-23T13:26:32;1.85;;;0.80;;
39020;SDS011;25188;51.958;5.842;2022-07-23T13:28:58;2.92;;;0.73;;
39020;SDS011;25188;51.958;5.842;2022-07-23T13:31:24;3.55;;;0.90;;
39020;SDS011;25188;51.958;5.842;2022-07-23T13:33:49;1.50;;;0.60;;
39020;SDS011;25188;51.958;5.842;2022-07-23T13:36:15;1.58;;;0.70;;
39020;SDS011;25188;51.958;5.842;2022-07-23T13:38:41;1.50;;;0.73;;
39020;SDS011;25188;51.958;5.842;2022-07-23T13:41:07;2.15;;;0.80;;
39020;SDS011;25188;51.958;5.842;2022-07-23T13:43:32;1.30;;;0.60;;
39020;SDS011;25188;51.958;5.842;2022-07-23T13:45:58;2.72;;;0.82;;
39020;SDS011;25188;51.958;5.842;2022-07-23T13:48:24;1.70;;;0.82;;
39020;SDS011;25188;51.958;5.842;2022-07-23T13:50:50;2.22;;;0.70;;
39020;SDS011;25188;51.958;5.842;2022-07-23T13:53:20;2.80;;;0.70;;
39020;SDS011;25188;51.958;5.842;2022-07-23T13:55:49;4.10;;;0.70;;
39020;SDS011;25188;51.958;5.842;2022-07-23T13:58:16;2.35;;;0.68;;
39020;SDS011;25188;51.958;5.842;2022-07-23T14:00:44;2.10;;;0.90;;
39020;SDS011;25188;51.958;5.842;2022-07-23T14:03:12;1.95;;;0.80;;
39020;SDS011;25188;51.958;5.842;2022-07-23T14:05:38;3.30;;;0.93;;
39020;SDS011;25188;51.958;5.842;2022-07-23T14:08:04;2.72;;;0.90;;
39020;SDS011;25188;51.958;5.842;2022-07-23T14:10:30;2.60;;;0.80;;
39020;SDS011;25188;51.958;5.842;2022-07-23T14:12:56;1.65;;;0.73;;
39020;SDS011;25188;51.958;5.842;2022-07-23T14:15:23;3.60;;;1.00;;
39020;SDS011;25188;51.958;5.842;2022-07-23T14:17:51;3.95;;;0.70;;
39020;SDS011;25188;51.958;5.842;2022-07-23T14:20:17;2.22;;;0.80;;
39020;SDS011;25188;51.958;5.842;2022-07-23T14:22:43;2.05;;;0.80;;
39020;SDS011;25188;51.958;5.842;2022-07-23T14:25:09;3.28;;;0.90;;
39020;SDS011;25188;51.958;5.842;2022-07-23T14:27:35;1.73;;;0.70;;
39020;SDS011;25188;51.958;5.842;2022-07-23T14:30:02;2.13;;;0.80;;
39020;SDS011;25188;51.958;5.842;2022-07-23T14:32:29;1.67;;;0.68;;
39020;SDS011;25188;51.958;5.842;2022-07-23T14:34:54;3.42;;;0.80;;
39020;SDS011;25188;51.958;5.842;2022-07-23T14:37:20;1.70;;;0.80;;
39020;SDS011;25188;51.958;5.842;2022-07-23T14:39:46;1.75;;;0.70;;
39020;SDS011;25188;51.958;5.842;2022-07-23T14:42:12;1.38;;;0.70;;
39020;SDS011;25188;51.958;5.842;2022-07-23T14:44:38;2.95;;;0.80;;
39020;SDS011;25188;51.958;5.842;2022-07-23T14:47:05;1.55;;;0.68;;
39020;SDS011;25188;51.958;5.842;2022-07-23T14:49:31;1.73;;;0.75;;
39020;SDS011;25188;51.958;5.842;2022-07-23T14:51:57;1.52;;;0.60;;
39020;SDS011;25188;51.958;5.842;2022-07-23T14:54:23;1.90;;;0.60;;
39020;SDS011;25188;51.958;5.842;2022-07-23T14:56:51;2.03;;;0.80;;
39020;SDS011;25188;51.958;5.842;2022-07-23T14:59:17;1.38;;;0.65;;
39020;SDS011;25188;51.958;5.842;2022-07-23T15:01:43;1.73;;;0.68;;
39020;SDS011;25188;51.958;5.842;2022-07-23T15:04:09;2.85;;;1.00;;
39020;SDS011;25188;51.958;5.842;2022-07-23T15:06:34;1.50;;;0.70;;
39020;SDS011;25188;51.958;5.842;2022-07-23T15:09:00;1.38;;;0.70;;
39020;SDS011;25188;51.958;5.842;2022-07-23T15:11:26;1.73;;;0.80;;
39020;SDS011;25188;51.958;5.842;2022-07-23T15:13:54;3.08;;;0.82;;
39020;SDS011;25188;51.958;5.842;2022-07-23T15:16:20;2.67;;;0.80;;
39020;SDS011;25188;51.958;5.842;2022-07-23T15:18:45;2.47;;;0.80;;
39020;SDS011;25188;51.958;5.842;2022-07-23T15:21:12;1.75;;;0.63;;
39020;SDS011;25188;51.958;5.842;2022-07-23T15:23:37;2.50;;;0.63;;
39020;SDS011;25188;51.958;5.842;2022-07-23T15:26:04;2.08;;;0.90;;
39020;SDS011;25188;51.958;5.842;2022-07-23T15:28:30;3.00;;;1.00;;
39020;SDS011;25188;51.958;5.842;2022-07-23T15:30:56;2.85;;;0.90;;
39020;SDS011;25188;51.958;5.842;2022-07-23T15:33:22;2.15;;;0.70;;
39020;SDS011;25188;51.958;5.842;2022-07-23T15:35:47;2.42;;;0.90;;
39020;SDS011;25188;51.958;5.842;2022-07-23T15:38:13;1.52;;;0.70;;
39020;SDS011;25188;51.958;5.842;2022-07-23T15:40:39;3.08;;;0.90;;
39020;SDS011;25188;51.958;5.842;2022-07-23T15:43:05;2.70;;;0.75;;
39020;SDS011;25188;51.958;5.842;2022-07-23T15:45:31;1.23;;;0.65;;
39020;SDS011;25188;51.958;5.842;2022-07-23T15:47:57;2.20;;;0.80;;
39020;SDS011;25188;51.958;5.842;2022-07-23T15:50:22;2.05;;;0.70;;
39020;SDS011;25188;51.958;5.842;2022-07-23T15:52:48;1.75;;;0.65;;
39020;SDS011;25188;51.958;5.842;2022-07-23T15:55:14;2.10;;;0.70;;